Time;durP1;ratioP1;P1;durP2;ratioP2;P2;SDS_P1;SDS_P2;PMS_P1;PMS_P2;Temp;Humidity;BMP_temperature;BMP_pressure;BME280_temperature;BME280_humidity;BME280_pressure;Samples;Min_cycle;Max_cycle;Signal;HPM_P1;HPM_P2
2022/05/21 00:00:06;;;;;;;2.63;0.90;;;;;;;14.92;100.00;100404.47;5142045;27;20782;-85
2022/05/21 00:02:34;;;;;;;1.80;0.80;;;;;;;15.04;100.00;100420.50;5147477;27;20046;-84
2022/05/21 00:05:01;;;;;;;2.83;0.80;;;;;;;15.04;100.00;100410.78;5147515;27;20050;-84
2022/05/21 00:07:29;;;;;;;1.80;0.82;;;;;;;14.74;100.00;100429.31;5146677;27;20664;-84
2022/05/21 00:09:56;;;;;;;1.77;0.80;;;;;;;14.60;100.00;100428.34;5139208;27;20039;-84
2022/05/21 00:12:23;;;;;;;2.30;0.70;;;;;;;14.92;100.00;100440.53;5146758;27;20050;-84
2022/05/21 00:14:52;;;;;;;3.28;1.08;;;;;;;14.72;100.00;100433.84;5140845;27;20050;-84
2022/05/21 00:17:20;;;;;;;3.67;1.02;;;;;;;14.76;100.00;100446.72;5137136;27;20042;-84
2022/05/21 00:19:47;;;;;;;3.45;0.90;;;;;;;14.68;100.00;100448.13;5145272;27;20051;-84
2022/05/21 00:22:14;;;;;;;3.15;0.90;;;;;;;14.69;100.00;100440.13;5144183;27;20475;-84
2022/05/21 00:24:41;;;;;;;2.63;1.00;;;;;;;14.73;100.00;100448.69;5143413;27;20484;-84
2022/05/21 00:27:08;;;;;;;2.15;0.80;;;;;;;14.59;100.00;100447.75;5141984;27;20038;-84
2022/05/21 00:29:34;;;;;;;2.05;0.90;;;;;;;14.78;100.00;100468.59;5142840;27;20042;-84
2022/05/21 00:32:05;;;;;;;2.00;1.00;;;;;;;14.66;100.00;100450.00;5144954;27;20049;-83
2022/05/21 00:34:34;;;;;;;2.28;0.90;;;;;;;14.51;100.00;100457.84;5142473;27;20038;-84
2022/05/21 00:37:02;;;;;;;2.47;0.90;;;;;;;14.59;100.00;100470.63;5143371;27;20057;-84
2022/05/21 00:39:29;;;;;;;1.38;0.70;;;;;;;14.68;100.00;100471.81;5142632;27;20051;-84
2022/05/21 00:42:04;;;;;;;2.45;0.90;;;;;;;14.75;100.00;100460.84;5140967;27;20051;-84
2022/05/21 00:44:31;;;;;;;2.13;0.88;;;;;;;14.68;100.00;100482.38;5140960;27;20126;-84
2022/05/21 00:46:58;;;;;;;1.23;0.85;;;;;;;14.61;100.00;100471.38;5143802;27;20039;-84
2022/05/21 00:49:31;;;;;;;1.65;0.70;;;;;;;14.65;100.00;100478.13;5140709;27;20448;-84
2022/05/21 00:52:05;;;;;;;0.90;0.77;;;;;;;14.52;100.00;100464.81;5141950;27;20054;-84
2022/05/21 00:54:36;;;;;;;2.17;0.80;;;;;;;14.60;100.00;100480.19;5159471;27;20070;-83
2022/05/21 00:57:13;;;;;;;1.45;0.80;;;;;;;14.54;100.00;100468.19;5139155;27;20064;-84
2022/05/21 00:59:48;;;;;;;2.35;0.90;;;;;;;14.32;100.00;100483.53;5141415;27;20497;-84
2022/05/21 01:02:19;;;;;;;2.08;0.70;;;;;;;14.30;100.00;100475.72;5142763;27;20053;-84
2022/05/21 01:04:49;;;;;;;4.38;0.90;;;;;;;14.14;100.00;100465.22;5143745;27;20518;-84
2022/05/21 01:07:16;;;;;;;2.17;0.88;;;;;;;14.34;100.00;100481.66;5143633;27;20068;-84
2022/05/21 01:09:54;;;;;;;2.47;0.88;;;;;;;14.07;100.00;100471.78;5140424;27;20138;-83
2022/05/21 01:12:24;;;;;;;3.90;0.88;;;;;;;14.21;100.00;100484.16;5144301;27;20476;-84
2022/05/21 01:14:55;;;;;;;1.95;0.88;;;;;;;14.20;100.00;100470.16;5139245;27;20051;-84
2022/05/21 01:17:22;;;;;;;1.38;0.80;;;;;;;13.90;100.00;100430.63;5142786;27;20632;-83
2022/05/21 01:20:02;;;;;;;1.67;1.00;;;;;;;14.33;100.00;100496.63;5132200;27;20044;-83
2022/05/21 01:22:31;;;;;;;2.08;0.90;;;;;;;14.19;100.00;100491.31;5140017;27;20043;-83
2022/05/21 01:24:58;;;;;;;2.65;1.00;;;;;;;14.07;100.00;100500.72;5137622;27;20096;-83
2022/05/21 01:27:27;;;;;;;3.10;0.80;;;;;;;13.97;100.00;100473.22;5130924;27;20051;-83
2022/05/21 01:29:55;;;;;;;2.40;0.98;;;;;;;13.77;100.00;100432.22;5130787;27;20061;-83
2022/05/21 01:32:22;;;;;;;1.52;0.80;;;;;;;13.88;100.00;100481.63;5151517;27;20430;-83
2022/05/21 01:34:49;;;;;;;2.35;1.08;;;;;;;13.67;100.00;100487.16;5133917;27;20051;-83
2022/05/21 01:37:16;;;;;;;1.65;0.80;;;;;;;13.73;100.00;100507.00;5138300;27;20058;-83
2022/05/21 01:39:43;;;;;;;3.58;0.93;;;;;;;13.77;100.00;100519.91;5151619;27;20060;-83
2022/05/21 01:42:10;;;;;;;3.95;0.98;;;;;;;13.72;100.00;100492.16;5149745;27;20069;-83
2022/05/21 01:44:39;;;;;;;6.10;0.98;;;;;;;13.63;100.00;100498.75;5132380;27;20047;-83
2022/05/21 01:47:11;;;;;;;3.35;0.90;;;;;;;13.61;100.00;100519.88;5148370;27;20047;-83
2022/05/21 01:49:39;;;;;;;1.92;0.90;;;;;;;13.21;100.00;100506.19;5152249;27;20137;-83
2022/05/21 01:52:07;;;;;;;2.92;1.00;;;;;;;13.56;100.00;100521.91;5151497;27;20159;-84
2022/05/21 01:54:35;;;;;;;2.13;0.90;;;;;;;13.46;100.00;100515.47;5151695;27;20621;-83
2022/05/21 01:57:04;;;;;;;2.85;0.90;;;;;;;13.45;100.00;100533.00;5150278;27;20043;-83
2022/05/21 01:59:40;;;;;;;2.65;1.00;;;;;;;13.30;100.00;100510.13;5131394;27;20066;-83
2022/05/21 02:02:07;;;;;;;1.95;0.95;;;;;;;13.17;100.00;100528.28;5150808;27;20053;-83
2022/05/21 02:04:34;;;;;;;2.58;0.90;;;;;;;13.10;100.00;100522.53;5150650;27;20050;-83
2022/05/21 02:07:01;;;;;;;4.22;1.13;;;;;;;13.11;100.00;100524.22;5150789;27;20050;-84
2022/05/21 02:09:28;;;;;;;2.63;1.00;;;;;;;12.76;100.00;100535.66;5149074;27;20038;-84
2022/05/21 02:11:54;;;;;;;2.92;1.00;;;;;;;12.90;100.00;100536.66;5151647;27;20068;-84
2022/05/21 02:14:21;;;;;;;3.58;1.00;;;;;;;12.77;100.00;100519.00;5151300;27;20095;-84
2022/05/21 02:16:48;;;;;;;2.47;1.00;;;;;;;12.83;100.00;100516.03;5148534;27;20035;-84
2022/05/21 02:19:15;;;;;;;2.55;1.00;;;;;;;13.19;100.00;100542.25;5132144;27;20047;-84
2022/05/21 02:21:42;;;;;;;3.20;1.00;;;;;;;12.99;100.00;100545.03;5138374;27;20049;-84
2022/05/21 02:24:09;;;;;;;2.60;0.90;;;;;;;12.76;100.00;100543.56;5134733;27;20728;-84
2022/05/21 02:26:38;;;;;;;4.18;1.00;;;;;;;12.50;100.00;100564.06;5136583;27;20378;-84
2022/05/21 02:29:06;;;;;;;2.40;1.00;;;;;;;12.31;100.00;100553.59;5134414;27;20051;-84
2022/05/21 02:31:33;;;;;;;2.90;1.10;;;;;;;12.53;100.00;100558.66;5134265;27;20047;-84
2022/05/21 02:34:00;;;;;;;2.20;1.00;;;;;;;12.27;100.00;100560.78;5146787;27;20511;-84
2022/05/21 02:39:25;;;;;;;1.40;0.90;;;;;;;12.15;100.00;100575.31;5143853;27;20404;-84
2022/05/21 02:41:52;;;;;;;2.15;1.10;;;;;;;12.21;100.00;100584.69;5154762;27;20426;-84
2022/05/21 02:44:19;;;;;;;3.03;1.10;;;;;;;12.35;100.00;100568.28;5155144;27;20051;-84
2022/05/21 02:46:46;;;;;;;4.72;1.13;;;;;;;12.12;100.00;100574.63;5144807;27;20405;-85
2022/05/21 02:49:13;;;;;;;4.03;1.30;;;;;;;12.01;100.00;100574.28;5133802;27;20047;-84
2022/05/21 02:51:40;;;;;;;3.38;1.10;;;;;;;11.96;100.00;100575.31;5135062;27;20043;-85
2022/05/21 02:54:09;;;;;;;4.18;1.52;;;;;;;12.17;100.00;100580.50;5135599;27;20051;-85
2022/05/21 02:56:43;;;;;;;3.20;1.10;;;;;;;12.06;100.00;100569.66;5147851;27;20891;-85
2022/05/21 02:59:10;;;;;;;2.78;1.00;;;;;;;12.32;100.00;100565.78;5144529;27;20507;-86
2022/05/21 03:01:37;;;;;;;3.75;0.95;;;;;;;12.39;100.00;100577.69;5146125;27;20056;-86
2022/05/21 03:04:04;;;;;;;3.13;1.05;;;;;;;12.04;100.00;100579.34;5149111;27;20422;-85
2022/05/21 03:06:30;;;;;;;3.03;1.00;;;;;;;12.04;100.00;100577.59;5147205;27;20054;-86
2022/05/21 03:11:43;;;;;;;3.95;1.10;;;;;;;12.17;100.00;100577.03;5142223;27;20637;-86
2022/05/21 03:14:09;;;;;;;4.30;1.10;;;;;;;12.13;100.00;100586.81;5155434;27;20053;-86
2022/05/21 03:16:36;;;;;;;2.75;1.00;;;;;;;11.88;100.00;100581.78;5145530;27;20066;-86
2022/05/21 03:19:03;;;;;;;3.40;1.00;;;;;;;11.98;100.00;100603.25;5138332;27;20043;-84
2022/05/21 03:21:30;;;;;;;3.00;1.10;;;;;;;12.14;100.00;100584.09;5156152;27;20050;-84
2022/05/21 03:23:58;;;;;;;3.20;1.00;;;;;;;12.23;100.00;100597.72;5154423;27;20047;-84
2022/05/21 03:26:25;;;;;;;4.53;1.65;;;;;;;12.09;100.00;100593.13;5139826;27;20054;-84
2022/05/21 03:28:52;;;;;;;4.47;1.33;;;;;;;11.91;100.00;100614.03;5133134;27;20051;-84
2022/05/21 03:31:19;;;;;;;3.17;1.30;;;;;;;11.69;100.00;100605.41;5133139;27;20051;-84
2022/05/21 03:33:46;;;;;;;3.22;1.20;;;;;;;11.70;100.00;100601.84;5144204;27;20095;-84
2022/05/21 03:36:12;;;;;;;4.60;1.10;;;;;;;11.47;100.00;100613.34;5152862;27;20117;-84
2022/05/21 03:38:39;;;;;;;3.33;1.10;;;;;;;11.62;100.00;100596.09;5147421;27;20647;-84
2022/05/21 03:41:06;;;;;;;4.30;1.20;;;;;;;11.78;100.00;100618.09;5134137;27;20055;-84
2022/05/21 03:43:33;;;;;;;3.38;1.10;;;;;;;11.85;100.00;100616.91;5135165;27;20047;-84
2022/05/21 03:46:00;;;;;;;4.20;1.00;;;;;;;12.01;100.00;100606.59;5132894;27;20563;-84
2022/05/21 03:48:27;;;;;;;3.25;1.20;;;;;;;11.88;100.00;100615.91;5133237;27;20047;-85
2022/05/21 03:50:53;;;;;;;4.15;1.30;;;;;;;11.78;100.00;100610.22;5134355;27;20051;-85
2022/05/21 03:53:20;;;;;;;5.25;1.20;;;;;;;11.80;100.00;100618.88;5132656;27;20047;-84
2022/05/21 03:55:48;;;;;;;2.88;0.90;;;;;;;11.90;100.00;100630.69;5135633;27;20449;-84
2022/05/21 03:58:15;;;;;;;4.00;1.20;;;;;;;11.74;100.00;100599.03;5134824;27;20043;-84
2022/05/21 04:00:42;;;;;;;5.35;1.10;;;;;;;11.50;100.00;100626.31;5133223;27;20047;-84
2022/05/21 04:03:09;;;;;;;3.40;1.08;;;;;;;11.17;100.00;100632.94;5143433;27;20556;-84
2022/05/21 04:05:36;;;;;;;2.92;1.35;;;;;;;10.83;100.00;100622.97;5146278;27;20054;-84
2022/05/21 04:08:03;;;;;;;4.00;1.17;;;;;;;10.83;100.00;100615.97;5137798;27;20039;-85
2022/05/21 04:10:30;;;;;;;3.58;1.20;;;;;;;11.26;100.00;100623.84;5144927;27;20400;-84
2022/05/21 04:12:57;;;;;;;6.32;1.38;;;;;;;11.04;100.00;100636.97;5142987;27;20046;-84
2022/05/21 04:15:25;;;;;;;2.53;1.10;;;;;;;11.25;100.00;100637.84;5145712;27;20056;-84
2022/05/21 04:17:53;;;;;;;4.18;1.20;;;;;;;11.68;100.00;100640.41;5135576;27;20704;-84
2022/05/21 04:20:23;;;;;;;4.80;1.58;;;;;;;11.65;100.00;100636.16;5144117;27;20054;-84
2022/05/21 04:22:51;;;;;;;2.25;1.10;;;;;;;11.72;100.00;100653.31;5144714;27;20049;-85
2022/05/21 04:25:19;;;;;;;6.75;1.30;;;;;;;12.09;100.00;100629.84;5144492;27;20042;-81
2022/05/21 04:27:46;;;;;;;3.33;1.20;;;;;;;12.84;100.00;100634.22;5152480;27;20374;-85
2022/05/21 04:30:16;;;;;;;5.50;1.40;;;;;;;12.89;100.00;100632.22;5146874;27;20047;-84
2022/05/21 04:32:47;;;;;;;4.57;1.02;;;;;;;13.54;100.00;100641.31;5142851;27;20047;-84
2022/05/21 04:35:15;;;;;;;3.85;1.10;;;;;;;13.71;100.00;100641.28;5140182;27;20039;-84
2022/05/21 04:37:42;;;;;;;5.18;1.20;;;;;;;13.61;100.00;100645.31;5142262;27;20054;-84
2022/05/21 04:40:12;;;;;;;3.47;1.10;;;;;;;13.66;100.00;100654.66;5143972;27;20817;-84
2022/05/21 04:42:39;;;;;;;3.40;1.13;;;;;;;14.40;100.00;100639.38;5143997;27;20126;-85
2022/05/21 04:45:08;;;;;;;3.75;1.17;;;;;;;13.73;100.00;100649.09;5143901;27;20130;-84
2022/05/21 04:47:35;;;;;;;2.85;1.10;;;;;;;12.93;100.00;100653.09;5140454;27;20050;-84
2022/05/21 04:50:03;;;;;;;2.83;0.90;;;;;;;12.41;100.00;100662.53;5143564;27;20047;-84
2022/05/21 04:52:30;;;;;;;1.85;0.90;;;;;;;12.35;100.00;100650.50;5141306;27;20130;-85
2022/05/21 04:54:57;;;;;;;4.28;1.05;;;;;;;12.27;100.00;100680.66;5143314;27;20154;-85
2022/05/21 04:57:24;;;;;;;2.85;1.05;;;;;;;11.66;100.00;100661.44;5139880;27;20125;-84
2022/05/21 04:59:51;;;;;;;6.20;1.73;;;;;;;11.45;100.00;100675.47;5141994;27;20050;-85
2022/05/21 05:02:19;;;;;;;4.13;1.15;;;;;;;11.71;100.00;100679.63;5142862;27;20061;-85
2022/05/21 05:04:46;;;;;;;3.95;1.15;;;;;;;11.50;100.00;100684.00;5145488;27;20083;-84
2022/05/21 05:07:13;;;;;;;2.13;1.02;;;;;;;11.73;100.00;100670.75;5140936;27;20472;-85
2022/05/21 05:09:43;;;;;;;2.47;1.00;;;;;;;11.69;100.00;100686.69;5142506;27;20049;-85
2022/05/21 05:12:10;;;;;;;3.70;1.08;;;;;;;12.13;100.00;100703.16;5147243;27;20059;-84
2022/05/21 05:14:37;;;;;;;5.05;1.70;;;;;;;12.11;100.00;100706.75;5142589;27;20411;-84
2022/05/21 05:17:05;;;;;;;1.83;0.90;;;;;;;12.04;100.00;100693.06;5142039;27;20399;-84
2022/05/21 05:19:33;;;;;;;3.42;1.23;;;;;;;12.01;100.00;100692.34;5143146;27;20065;-85
2022/05/21 05:22:00;;;;;;;4.22;1.20;;;;;;;11.82;100.00;100684.41;5140795;27;20072;-85
2022/05/21 05:24:27;;;;;;;4.57;1.15;;;;;;;11.96;100.00;100695.16;5139217;27;20130;-84
2022/05/21 05:26:54;;;;;;;3.70;1.23;;;;;;;12.03;100.00;100709.72;5136589;27;20039;-85
2022/05/21 05:29:21;;;;;;;1.80;1.00;;;;;;;11.80;100.00;100696.72;5139799;27;20077;-84
2022/05/21 05:31:47;;;;;;;3.22;1.20;;;;;;;11.62;100.00;100701.84;5142305;27;20761;-85
2022/05/21 05:34:14;;;;;;;3.42;1.20;;;;;;;11.89;100.00;100702.41;5140213;27;20050;-85
2022/05/21 05:36:41;;;;;;;2.67;1.20;;;;;;;12.13;100.00;100710.19;5141005;27;20061;-85
2022/05/21 05:39:08;;;;;;;4.75;1.50;;;;;;;11.91;100.00;100711.09;5142681;27;20502;-84
2022/05/21 05:41:38;;;;;;;4.72;1.27;;;;;;;11.90;100.00;100721.66;5142847;27;20046;-84
2022/05/21 05:44:05;;;;;;;4.05;1.48;;;;;;;11.67;100.00;100720.88;5143624;27;20042;-84
2022/05/21 05:46:32;;;;;;;4.13;1.27;;;;;;;11.51;100.00;100704.91;5141313;27;20053;-85
2022/05/21 05:48:59;;;;;;;4.05;1.42;;;;;;;11.68;100.00;100703.34;5141588;27;20134;-84
2022/05/21 05:51:27;;;;;;;5.18;1.50;;;;;;;11.48;100.00;100714.69;5145542;27;20049;-84
2022/05/21 05:53:54;;;;;;;4.68;1.20;;;;;;;12.25;100.00;100746.38;5146603;27;20053;-84
2022/05/21 05:56:21;;;;;;;5.95;2.05;;;;;;;12.91;100.00;100719.69;5153269;27;20046;-84
2022/05/21 06:01:34;;;;;;;3.90;1.10;;;;;;;14.02;100.00;100732.66;5146263;27;20047;-84
2022/05/21 06:04:02;;;;;;;3.30;0.90;;;;;;;13.59;100.00;100729.56;5146833;27;20112;-84
2022/05/21 06:06:30;;;;;;;3.80;1.40;;;;;;;13.32;100.00;100737.06;5146040;27;20047;-85
2022/05/21 06:08:58;;;;;;;5.43;1.30;;;;;;;13.22;100.00;100723.47;5142557;27;20050;-85
2022/05/21 06:11:24;;;;;;;2.42;1.00;;;;;;;13.33;100.00;100736.13;5149169;27;20046;-85
2022/05/21 06:13:51;;;;;;;4.07;1.20;;;;;;;14.61;100.00;100734.84;5146643;27;20718;-85
2022/05/21 06:16:18;;;;;;;5.35;1.30;;;;;;;15.44;100.00;100726.69;5146039;27;20053;-86
2022/05/21 06:18:45;;;;;;;4.22;1.15;;;;;;;15.74;100.00;100730.22;5146333;27;20483;-87
2022/05/21 06:21:12;;;;;;;3.83;1.23;;;;;;;16.51;100.00;100709.66;5152373;27;20047;-86
2022/05/21 06:23:39;;;;;;;2.97;0.90;;;;;;;17.27;100.00;100736.59;5147746;27;20047;-86
2022/05/21 06:26:06;;;;;;;4.75;0.90;;;;;;;17.26;100.00;100706.66;5144893;27;20049;-86
2022/05/21 06:28:32;;;;;;;5.43;1.15;;;;;;;17.26;100.00;100737.53;5149002;27;20145;-87
2022/05/21 06:30:59;;;;;;;2.58;0.80;;;;;;;17.93;100.00;100713.66;5143144;27;20070;-87
2022/05/21 06:33:28;;;;;;;2.92;0.73;;;;;;;18.33;100.00;100732.09;5147509;27;20133;-86
2022/05/21 06:36:07;;;;;;;1.98;0.70;;;;;;;18.32;100.00;100756.06;5148527;27;20472;-85
2022/05/21 06:38:37;;;;;;;3.20;0.68;;;;;;;19.02;100.00;100754.69;5149538;27;20052;-85
2022/05/21 06:41:04;;;;;;;2.03;0.75;;;;;;;18.62;100.00;100757.50;5146072;27;20506;-87
2022/05/21 06:43:31;;;;;;;4.00;0.90;;;;;;;18.99;100.00;100729.19;5144468;27;20404;-86
2022/05/21 06:45:58;;;;;;;5.22;0.90;;;;;;;18.56;100.00;100745.53;5144845;27;20053;-85
2022/05/21 06:48:25;;;;;;;4.07;1.15;;;;;;;19.34;100.00;100757.59;5143443;27;20468;-85
2022/05/21 06:50:52;;;;;;;3.15;0.82;;;;;;;19.31;100.00;100752.53;5144700;27;20047;-84
2022/05/21 06:53:19;;;;;;;2.92;0.80;;;;;;;19.37;100.00;100744.13;5145788;27;20065;-84
2022/05/21 06:55:46;;;;;;;3.88;0.95;;;;;;;19.40;100.00;100748.34;5146494;27;20042;-85
2022/05/21 06:58:13;;;;;;;6.30;1.23;;;;;;;20.02;92.96;100742.72;5145656;27;20042;-85
2022/05/21 07:00:40;;;;;;;5.55;0.82;;;;;;;19.56;100.00;100745.38;5146640;27;20843;-85
2022/05/21 07:03:06;;;;;;;2.22;0.60;;;;;;;19.53;98.40;100749.13;5150204;27;20043;-84
2022/05/21 07:08:24;;;;;;;4.35;1.05;;;;;;;20.30;93.64;100760.03;5144163;27;20039;-85
2022/05/21 07:10:52;;;;;;;4.90;0.95;;;;;;;19.66;99.53;100752.53;5142782;27;20134;-85
2022/05/21 07:13:21;;;;;;;2.95;0.70;;;;;;;19.70;97.42;100769.09;5143511;27;20061;-85
2022/05/21 07:15:49;;;;;;;2.13;0.68;;;;;;;20.94;87.60;100745.28;5146871;27;20423;-85
2022/05/21 07:18:20;;;;;;;3.05;0.68;;;;;;;20.22;79.02;100774.91;5151825;27;20053;-85
2022/05/21 07:20:48;;;;;;;3.15;0.63;;;;;;;21.26;84.95;100773.75;5159339;27;20050;-85
2022/05/21 07:23:16;;;;;;;1.58;0.50;;;;;;;21.79;82.69;100754.28;5147880;27;20548;-85
2022/05/21 07:25:43;;;;;;;2.17;0.68;;;;;;;20.83;72.96;100774.56;5142525;27;20058;-85
2022/05/21 07:28:10;;;;;;;5.40;0.75;;;;;;;21.31;86.79;100778.69;5150479;27;20401;-85
2022/05/21 07:30:37;;;;;;;1.95;0.55;;;;;;;21.71;72.13;100756.75;5150605;27;20396;-85
2022/05/21 07:33:08;;;;;;;3.50;0.73;;;;;;;21.80;69.90;100770.16;5148083;27;20050;-85
2022/05/21 07:35:37;;;;;;;2.55;0.60;;;;;;;21.02;71.27;100781.94;5147250;27;20039;-85
2022/05/21 07:38:09;;;;;;;4.28;0.70;;;;;;;21.35;69.82;100786.28;5147936;27;20392;-85
2022/05/21 07:40:38;;;;;;;2.22;0.65;;;;;;;21.12;71.07;100774.03;5148625;27;20054;-85
2022/05/21 07:43:20;;;;;;;3.65;0.70;;;;;;;21.64;66.71;100775.09;5150562;27;20041;-85
2022/05/21 07:45:47;;;;;;;2.17;0.63;;;;;;;21.50;61.99;100776.22;5147312;27;20047;-85
2022/05/21 07:48:18;;;;;;;2.35;0.73;;;;;;;22.17;62.75;100771.50;5143903;27;20400;-84
2022/05/21 07:50:57;;;;;;;4.50;0.90;;;;;;;21.04;63.99;100759.53;5143353;27;20084;-84
2022/05/21 07:53:27;;;;;;;3.85;0.77;;;;;;;21.69;66.26;100759.56;5144269;27;20046;-85
2022/05/21 07:55:55;;;;;;;4.75;0.90;;;;;;;21.30;64.87;100782.31;5147046;27;20053;-85
2022/05/21 07:58:24;;;;;;;4.28;0.85;;;;;;;21.52;62.62;100763.63;5142277;27;20059;-85
2022/05/21 08:00:51;;;;;;;3.13;0.60;;;;;;;21.38;62.62;100799.34;5148066;27;20047;-86
2022/05/21 08:03:18;;;;;;;4.47;0.95;;;;;;;20.63;61.21;100770.84;5147711;27;20042;-86
2022/05/21 08:05:45;;;;;;;1.83;0.60;;;;;;;22.17;63.29;100793.69;5145822;27;20408;-85
2022/05/21 08:08:12;;;;;;;3.38;0.90;;;;;;;21.83;61.95;100793.00;5146190;27;20118;-85
2022/05/21 08:10:42;;;;;;;2.13;0.65;;;;;;;22.04;58.71;100794.84;5141862;27;20400;-86
2022/05/21 08:13:10;;;;;;;3.15;0.70;;;;;;;21.86;56.45;100790.09;5143677;27;20400;-86
2022/05/21 08:15:38;;;;;;;3.53;0.80;;;;;;;22.10;58.35;100797.84;5152760;27;20050;-85
2022/05/21 08:18:06;;;;;;;3.03;0.75;;;;;;;22.20;56.40;100789.88;5151482;27;20054;-85
2022/05/21 08:20:35;;;;;;;4.57;0.98;;;;;;;22.35;56.73;100799.28;5151597;27;20046;-85
2022/05/21 08:28:35;;;;;;;2.42;0.70;;;;;;;21.67;54.71;100805.94;5151448;27;20042;-85
2022/05/21 08:31:03;;;;;;;3.65;0.80;;;;;;;21.60;54.31;100790.47;5150357;27;20050;-85
2022/05/21 08:33:31;;;;;;;4.40;1.00;;;;;;;21.90;51.77;100783.56;5141926;27;20046;-86
2022/05/21 08:35:58;;;;;;;2.55;0.60;;;;;;;21.37;56.76;100779.03;5146570;27;20104;-87
2022/05/21 08:38:25;;;;;;;4.65;1.02;;;;;;;20.89;54.02;100798.00;5145543;27;20047;-88
2022/05/21 08:41:03;;;;;;;3.45;0.85;;;;;;;22.15;53.37;100792.97;5150695;27;20053;-87
2022/05/21 08:43:47;;;;;;;3.00;0.75;;;;;;;22.47;50.67;100802.72;5144154;27;20047;-87
2022/05/21 08:46:43;;;;;;;2.15;0.65;;;;;;;22.17;51.49;100798.19;5151726;27;20043;-87
2022/05/21 08:49:33;;;;;;;2.97;0.85;;;;;;;21.00;55.61;100818.44;5147792;27;20552;-88
2022/05/21 08:52:06;;;;;;;2.55;0.90;;;;;;;20.73;54.92;100821.50;5143256;27;20183;-87
2022/05/21 08:54:39;;;;;;;4.32;1.00;;;;;;;20.97;57.04;100811.56;5143485;27;20069;-88
2022/05/21 08:57:13;;;;;;;2.97;0.80;;;;;;;20.30;57.51;100810.56;5144731;27;20516;-87
2022/05/21 08:59:46;;;;;;;1.77;0.80;;;;;;;19.91;58.54;100798.53;5138755;27;20291;-87
2022/05/21 09:02:18;;;;;;;;;;;;;;;20.89;59.66;100810.47;5144230;27;20049;-87
2022/05/21 09:04:45;;;;;;;2.33;0.80;;;;;;;21.21;54.96;100819.41;5149220;27;19918;-86
2022/05/21 09:07:19;;;;;;;4.28;1.00;;;;;;;20.52;52.18;100800.91;5142126;27;20055;-86
2022/05/21 09:10:06;;;;;;;3.13;0.85;;;;;;;20.73;52.14;100794.91;5152517;27;20059;-86
2022/05/21 09:13:20;;;;;;;8.07;1.10;;;;;;;20.02;53.33;100805.69;5131701;27;20047;-86
2022/05/21 09:18:56;;;;;;;2.85;0.75;;;;;;;21.73;51.10;100789.47;5149890;27;20060;-87
2022/05/21 09:21:26;;;;;;;4.28;1.05;;;;;;;21.90;50.34;100786.22;5151005;27;20049;-88
2022/05/21 09:23:57;;;;;;;5.65;1.40;;;;;;;22.59;48.12;100798.09;5137505;27;20150;-88
2022/05/21 09:26:30;;;;;;;5.20;1.17;;;;;;;21.91;48.26;100792.38;5131006;27;20499;-88
2022/05/21 09:29:33;;;;;;;2.80;0.70;;;;;;;22.27;47.12;100787.56;5143744;27;20046;-87
2022/05/21 09:32:31;;;;;;;4.50;0.95;;;;;;;21.73;49.27;100776.97;5113522;27;20038;-88
2022/05/21 09:35:05;;;;;;;3.38;1.02;;;;;;;21.33;50.61;100800.72;5152040;27;20053;-86
2022/05/21 09:37:32;;;;;;;4.57;0.82;;;;;;;21.93;45.43;100798.44;5153384;27;20047;-86
2022/05/21 09:40:00;;;;;;;4.47;1.15;;;;;;;21.94;45.44;100787.63;5151463;27;20043;-86
2022/05/21 09:45:27;;;;;;;4.20;0.90;;;;;;;22.21;44.13;100798.75;5140741;27;20633;-86
2022/05/21 09:48:06;;;;;;;3.92;0.85;;;;;;;22.45;45.34;100791.34;5136192;27;20146;-86
2022/05/21 09:50:47;;;;;;;2.22;0.98;;;;;;;23.04;46.65;100786.19;5136375;27;20435;-87
2022/05/21 09:53:23;;;;;;;5.30;0.90;;;;;;;23.07;45.35;100793.94;5152725;27;20510;-87
2022/05/21 09:56:02;;;;;;;5.30;1.20;;;;;;;21.91;43.55;100776.41;5150734;27;20056;-86
2022/05/21 09:58:33;;;;;;;4.28;1.10;;;;;;;22.09;45.76;100790.81;5151399;27;20047;-87
2022/05/21 10:01:00;;;;;;;5.30;1.17;;;;;;;22.10;45.33;100795.19;5151773;27;20053;-87
2022/05/21 10:03:54;;;;;;;6.07;1.10;;;;;;;21.63;44.35;100805.34;5145383;27;20050;-87
2022/05/21 10:06:36;;;;;;;7.10;1.15;;;;;;;21.71;44.79;100810.03;5150657;27;20043;-87
2022/05/21 10:12:19;;;;;;;3.55;1.00;;;;;;;21.99;45.41;100808.56;5144586;27;20073;-87
2022/05/21 10:15:04;;;;;;;5.10;0.90;;;;;;;22.11;45.44;100818.19;5130616;27;20052;-87
2022/05/21 10:17:34;;;;;;;4.88;1.00;;;;;;;21.48;44.63;100815.47;5135397;27;20089;-87
2022/05/21 10:20:23;;;;;;;7.50;1.30;;;;;;;20.34;48.89;100832.44;5131067;28;20039;-88
2022/05/21 10:22:56;;;;;;;6.57;1.42;;;;;;;21.52;49.71;100819.56;5131275;28;20385;-88
2022/05/21 10:25:31;;;;;;;7.50;1.60;;;;;;;21.24;55.21;100795.16;5131275;28;20056;-88
2022/05/21 10:28:04;;;;;;;4.53;0.95;;;;;;;20.60;56.90;100833.06;5148867;27;20049;-86
2022/05/21 10:30:49;;;;;;;7.70;1.95;;;;;;;20.87;60.35;100829.22;5152562;27;20046;-86
2022/05/21 10:33:35;;;;;;;5.82;0.90;;;;;;;21.21;58.44;100831.84;5142065;27;20558;-87
2022/05/21 10:36:15;;;;;;;3.67;0.90;;;;;;;20.96;59.87;100820.50;5146157;27;20069;-86
2022/05/21 10:39:15;;;;;;;4.43;1.20;;;;;;;20.33;60.50;100835.22;5142768;27;20045;-87
2022/05/21 10:42:00;;;;;;;6.70;1.40;;;;;;;20.10;62.01;100835.19;5151211;27;20047;-87
2022/05/21 10:44:51;;;;;;;5.50;1.08;;;;;;;19.22;64.50;100844.28;5154112;27;20317;-87
2022/05/21 10:47:27;;;;;;;7.00;1.27;;;;;;;18.70;67.42;100846.16;5151107;27;20477;-85
2022/05/21 10:50:21;;;;;;;7.82;1.40;;;;;;;18.52;68.02;100850.97;5135117;27;20055;-87
2022/05/21 10:53:18;;;;;;;11.70;1.60;;;;;;;19.01;68.16;100840.53;5147047;27;20149;-91
2022/05/21 10:56:05;;;;;;;8.27;1.60;;;;;;;19.65;66.25;100822.53;5149990;27;20116;-93
2022/05/21 10:59:09;;;;;;;7.78;1.30;;;;;;;20.44;65.38;100843.22;5133577;27;20047;-86
2022/05/21 11:02:17;;;;;;;7.25;1.65;;;;;;;20.85;63.12;100833.84;5144024;27;20134;-84
2022/05/21 11:04:54;;;;;;;11.52;2.25;;;;;;;20.13;63.33;100832.28;5112099;28;20081;-86
2022/05/21 11:07:44;;;;;;;6.40;1.63;;;;;;;20.36;63.14;100827.00;5136813;27;20058;-86
2022/05/21 11:10:40;;;;;;;6.35;1.33;;;;;;;20.80;63.21;100831.53;5151788;27;20050;-85
2022/05/21 11:13:17;;;;;;;4.95;1.23;;;;;;;21.07;63.00;100808.16;5144477;27;20403;-85
2022/05/21 11:15:52;;;;;;;10.73;1.52;;;;;;;20.95;61.92;100815.34;5139689;27;20065;-85
2022/05/21 11:18:42;;;;;;;6.18;1.52;;;;;;;20.96;61.98;100811.69;5132806;27;20528;-85
2022/05/21 11:21:29;;;;;;;7.72;1.42;;;;;;;20.96;61.94;100819.66;5151809;27;20161;-84
2022/05/21 11:24:10;;;;;;;10.38;2.17;;;;;;;20.48;62.40;100812.75;5150392;27;20396;-84
2022/05/21 11:26:51;;;;;;;9.25;1.70;;;;;;;20.34;64.69;100797.88;5144773;27;20043;-86
2022/05/21 11:29:28;;;;;;;5.20;1.35;;;;;;;20.92;62.28;100808.44;5142871;27;20039;-84
2022/05/21 11:37:44;;;;;;;6.65;1.27;;;;;;;21.41;59.81;100823.09;5149046;27;20047;-86
2022/05/21 11:40:49;;;;;;;6.03;1.48;;;;;;;20.59;56.02;100830.53;5146743;27;20123;-86
2022/05/21 11:43:18;;;;;;;6.57;1.48;;;;;;;20.15;53.86;100818.88;5131486;27;20047;-86
2022/05/21 11:46:07;;;;;;;6.35;1.30;;;;;;;20.29;52.09;100830.16;5134645;27;20047;-85
2022/05/21 11:48:34;;;;;;;7.70;1.58;;;;;;;19.66;52.51;100821.59;5132421;27;20086;-85
2022/05/21 11:51:25;;;;;;;6.63;1.38;;;;;;;20.20;50.78;100812.25;5146570;27;20130;-88
2022/05/21 11:53:52;;;;;;;6.40;1.42;;;;;;;20.03;50.89;100815.34;5152986;27;20073;-84
2022/05/21 11:56:18;;;;;;;9.48;1.55;;;;;;;19.90;49.54;100804.78;5151616;27;20655;-84
2022/05/21 11:58:57;;;;;;;7.25;1.30;;;;;;;19.96;48.80;100822.09;5148820;27;20047;-86
2022/05/21 12:01:44;;;;;;;7.32;1.33;;;;;;;20.07;48.13;100825.63;5131679;27;20093;-85
2022/05/21 12:04:48;;;;;;;8.52;1.10;;;;;;;21.46;47.75;100821.88;5135943;27;20125;-85
2022/05/21 12:07:17;;;;;;;;;;;;;;;21.54;46.27;100828.28;5111176;27;20069;-86
2022/05/21 12:10:02;;;;;;;5.30;1.40;;;;;;;20.85;47.37;100809.88;5145894;27;19923;-87
2022/05/21 12:12:30;;;;;;;7.38;1.58;;;;;;;21.09;48.54;100816.84;5144418;27;20484;-88